sensor_id;sensor_type;location;lat;lon;timestamp;P1;durP1;ratioP1;P2;durP2;ratioP2
9280;SDS011;4679;47.966;7.958;2023-04-29T06:42:21;1.53;;;1.10;;
9280;SDS011;4679;47.966;7.958;2023-04-29T06:44:23;1.00;;;0.90;;
9280;SDS011;4679;47.966;7.958;2023-04-29T06:46:25;1.20;;;1.10;;
9280;SDS011;4679;47.966;7.958;2023-04-29T06:48:27;1.03;;;1.03;;
9280;SDS011;4679;47.966;7.958;2023-04-29T06:50:28;1.10;;;0.93;;
9280;SDS011;4679;47.966;7.958;2023-04-29T06:52:30;1.07;;;1.07;;
9280;SDS011;4679;47.966;7.958;2023-04-29T06:54:32;1.10;;;1.10;;
9280;SDS011;4679;47.966;7.958;2023-04-29T06:56:34;1.67;;;1.00;;
9280;SDS011;4679;47.966;7.958;2023-04-29T06:58:37;1.87;;;0.93;;
9280;SDS011;4679;47.966;7.958;2023-04-29T07:00:39;0.90;;;0.90;;
9280;SDS011;4679;47.966;7.958;2023-04-29T07:02:40;1.40;;;0.80;;
9280;SDS011;4679;47.966;7.958;2023-04-29T07:04:42;3.33;;;1.00;;
9280;SDS011;4679;47.966;7.958;2023-04-29T07:06:43;0.80;;;0.80;;
9280;SDS011;4679;47.966;7.958;2023-04-29T07:08:46;1.63;;;0.80;;
9280;SDS011;4679;47.966;7.958;2023-04-29T07:10:52;0.97;;;0.80;;
9280;SDS011;4679;47.966;7.958;2023-04-29T07:12:55;0.90;;;0.90;;
9280;SDS011;4679;47.966;7.958;2023-04-29T07:14:58;1.27;;;1.17;;
9280;SDS011;4679;47.966;7.958;2023-04-29T07:17:00;1.53;;;1.10;;
9280;SDS011;4679;47.966;7.958;2023-04-29T07:19:02;1.33;;;0.83;;
9280;SDS011;4679;47.966;7.958;2023-04-29T07:21:04;2.20;;;0.80;;
9280;SDS011;4679;47.966;7.958;2023-04-29T07:23:05;0.80;;;0.80;;
9280;SDS011;4679;47.966;7.958;2023-04-29T07:25:07;0.80;;;0.80;;
9280;SDS011;4679;47.966;7.958;2023-04-29T07:27:10;1.47;;;1.00;;
9280;SDS011;4679;47.966;7.958;2023-04-29T07:29:11;2.20;;;0.90;;
9280;SDS011;4679;47.966;7.958;2023-04-29T07:31:14;0.93;;;0.90;;
9280;SDS011;4679;47.966;7.958;2023-04-29T07:33:16;1.17;;;0.60;;
9280;SDS011;4679;47.966;7.958;2023-04-29T07:35:18;2.10;;;0.83;;
9280;SDS011;4679;47.966;7.958;2023-04-29T07:37:20;1.27;;;0.80;;
9280;SDS011;4679;47.966;7.958;2023-04-29T07:39:22;2.00;;;1.40;;
9280;SDS011;4679;47.966;7.958;2023-04-29T07:41:23;1.43;;;0.90;;
9280;SDS011;4679;47.966;7.958;2023-04-29T07:43:25;1.50;;;0.60;;
9280;SDS011;4679;47.966;7.958;2023-04-29T07:45:27;1.00;;;0.90;;
9280;SDS011;4679;47.966;7.958;2023-04-29T07:47:30;0.80;;;0.80;;
9280;SDS011;4679;47.966;7.958;2023-04-29T07:49:31;1.60;;;0.90;;
9280;SDS011;4679;47.966;7.958;2023-04-29T07:51:33;0.73;;;0.60;;
9280;SDS011;4679;47.966;7.958;2023-04-29T07:53:35;1.07;;;0.60;;
9280;SDS011;4679;47.966;7.958;2023-04-29T07:55:37;1.47;;;0.60;;
9280;SDS011;4679;47.966;7.958;2023-04-29T07:57:38;0.60;;;0.60;;
9280;SDS011;4679;47.966;7.958;2023-04-29T07:59:40;2.17;;;0.60;;
9280;SDS011;4679;47.966;7.958;2023-04-29T08:01:42;0.60;;;0.60;;
9280;SDS011;4679;47.966;7.958;2023-04-29T08:03:45;2.53;;;0.63;;
9280;SDS011;4679;47.966;7.958;2023-04-29T08:05:46;2.50;;;0.60;;
9280;SDS011;4679;47.966;7.958;2023-04-29T08:07:50;0.97;;;0.60;;
9280;SDS011;4679;47.966;7.958;2023-04-29T08:09:51;0.97;;;0.80;;
9280;SDS011;4679;47.966;7.958;2023-04-29T08:11:53;0.60;;;0.60;;
9280;SDS011;4679;47.966;7.958;2023-04-29T08:13:55;1.43;;;0.50;;
9280;SDS011;4679;47.966;7.958;2023-04-29T08:15:58;2.70;;;0.50;;
9280;SDS011;4679;47.966;7.958;2023-04-29T08:18:00;0.70;;;0.70;;
9280;SDS011;4679;47.966;7.958;2023-04-29T08:20:03;1.17;;;0.60;;
9280;SDS011;4679;47.966;7.958;2023-04-29T08:22:06;1.20;;;0.60;;
9280;SDS011;4679;47.966;7.958;2023-04-29T08:24:10;1.73;;;0.60;;
9280;SDS011;4679;47.966;7.958;2023-04-29T08:26:11;1.70;;;0.70;;
9280;SDS011;4679;47.966;7.958;2023-04-29T08:28:13;1.23;;;0.73;;
9280;SDS011;4679;47.966;7.958;2023-04-29T08:30:15;0.80;;;0.80;;
9280;SDS011;4679;47.966;7.958;2023-04-29T08:32:17;1.50;;;0.80;;
9280;SDS011;4679;47.966;7.958;2023-04-29T08:34:18;1.20;;;0.80;;
9280;SDS011;4679;47.966;7.958;2023-04-29T08:36:21;0.93;;;0.60;;
9280;SDS011;4679;47.966;7.958;2023-04-29T08:38:23;2.80;;;0.73;;
9280;SDS011;4679;47.966;7.958;2023-04-29T08:40:25;1.17;;;0.60;;
9280;SDS011;4679;47.966;7.958;2023-04-29T08:42:31;1.03;;;0.60;;
9280;SDS011;4679;47.966;7.958;2023-04-29T08:44:35;0.70;;;0.70;;
9280;SDS011;4679;47.966;7.958;2023-04-29T08:46:37;0.70;;;0.70;;
9280;SDS011;4679;47.966;7.958;2023-04-29T08:48:39;0.50;;;0.50;;
9280;SDS011;4679;47.966;7.958;2023-04-29T08:50:42;1.07;;;0.53;;
9280;SDS011;4679;47.966;7.958;2023-04-29T08:52:45;0.77;;;0.60;;
9280;SDS011;4679;47.966;7.958;2023-04-29T08:54:47;0.57;;;0.57;;
9280;SDS011;4679;47.966;7.958;2023-04-29T08:56:48;1.13;;;0.50;;
9280;SDS011;4679;47.966;7.958;2023-04-29T08:58:52;0.50;;;0.50;;
9280;SDS011;4679;47.966;7.958;2023-04-29T09:00:54;0.50;;;0.50;;
9280;SDS011;4679;47.966;7.958;2023-04-29T09:02:57;1.27;;;0.60;;
9280;SDS011;4679;47.966;7.958;2023-04-29T09:05:03;0.90;;;0.60;;
9280;SDS011;4679;47.966;7.958;2023-04-29T09:07:08;2.40;;;0.60;;
9280;SDS011;4679;47.966;7.958;2023-04-29T09:09:13;0.70;;;0.60;;
9280;SDS011;4679;47.966;7.958;2023-04-29T09:11:16;0.70;;;0.70;;
9280;SDS011;4679;47.966;7.958;2023-04-29T09:13:23;0.50;;;0.50;;
9280;SDS011;4679;47.966;7.958;2023-04-29T09:15:25;0.60;;;0.60;;
9280;SDS011;4679;47.966;7.958;2023-04-29T09:17:39;0.90;;;0.70;;
9280;SDS011;4679;47.966;7.958;2023-04-29T09:19:43;1.33;;;0.70;;
9280;SDS011;4679;47.966;7.958;2023-04-29T09:21:44;0.67;;;0.67;;
9280;SDS011;4679;47.966;7.958;2023-04-29T09:23:55;1.13;;;0.60;;
9280;SDS011;4679;47.966;7.958;2023-04-29T09:25:59;0.50;;;0.50;;
9280;SDS011;4679;47.966;7.958;2023-04-29T09:28:07;0.70;;;0.70;;
9280;SDS011;4679;47.966;7.958;2023-04-29T09:30:15;0.40;;;0.40;;
9280;SDS011;4679;47.966;7.958;2023-04-29T09:32:19;0.67;;;0.67;;
9280;SDS011;4679;47.966;7.958;2023-04-29T09:34:29;0.87;;;0.60;;
9280;SDS011;4679;47.966;7.958;2023-04-29T09:36:36;0.83;;;0.70;;
9280;SDS011;4679;47.966;7.958;2023-04-29T09:38:39;0.80;;;0.70;;
9280;SDS011;4679;47.966;7.958;2023-04-29T09:40:54;0.70;;;0.60;;
9280;SDS011;4679;47.966;7.958;2023-04-29T09:42:57;0.53;;;0.53;;
9280;SDS011;4679;47.966;7.958;2023-04-29T09:44:59;1.00;;;0.50;;
9280;SDS011;4679;47.966;7.958;2023-04-29T09:47:02;0.93;;;0.70;;
9280;SDS011;4679;47.966;7.958;2023-04-29T09:49:20;1.83;;;0.73;;
9280;SDS011;4679;47.966;7.958;2023-04-29T09:51:26;0.63;;;0.50;;
9280;SDS011;4679;47.966;7.958;2023-04-29T09:53:28;0.60;;;0.60;;
9280;SDS011;4679;47.966;7.958;2023-04-29T09:55:30;0.83;;;0.60;;
9280;SDS011;4679;47.966;7.958;2023-04-29T09:57:38;0.67;;;0.67;;
9280;SDS011;4679;47.966;7.958;2023-04-29T09:59:42;0.93;;;0.60;;
9280;SDS011;4679;47.966;7.958;2023-04-29T10:01:44;0.60;;;0.60;;
9280;SDS011;4679;47.966;7.958;2023-04-29T10:03:48;0.80;;;0.70;;
9280;SDS011;4679;47.966;7.958;2023-04-29T10:05:51;1.20;;;0.80;;
9280;SDS011;4679;47.966;7.958;2023-04-29T10:07:54;0.80;;;0.80;;
9280;SDS011;4679;47.966;7.958;2023-04-29T10:09:57;0.60;;;0.60;;
9280;SDS011;4679;47.966;7.958;2023-04-29T10:11:59;0.90;;;0.90;;
9280;SDS011;4679;47.966;7.958;2023-04-29T10:14:02;1.20;;;0.70;;
9280;SDS011;4679;47.966;7.958;2023-04-29T10:16:10;0.70;;;0.60;;
9280;SDS011;4679;47.966;7.958;2023-04-29T10:18:20;0.70;;;0.70;;
9280;SDS011;4679;47.966;7.958;2023-04-29T10:20:26;1.77;;;1.63;;
9280;SDS011;4679;47.966;7.958;2023-04-29T10:22:35;0.83;;;0.70;;
9280;SDS011;4679;47.966;7.958;2023-04-29T10:24:43;1.73;;;0.80;;
9280;SDS011;4679;47.966;7.958;2023-04-29T10:26:47;1.13;;;0.70;;
9280;SDS011;4679;47.966;7.958;2023-04-29T10:28:51;0.70;;;0.70;;
9280;SDS011;4679;47.966;7.958;2023-04-29T10:30:56;0.70;;;0.70;;
9280;SDS011;4679;47.966;7.958;2023-04-29T10:33:02;1.13;;;0.60;;
9280;SDS011;4679;47.966;7.958;2023-04-29T10:35:05;1.13;;;0.83;;
9280;SDS011;4679;47.966;7.958;2023-04-29T10:37:09;2.23;;;0.70;;
9280;SDS011;4679;47.966;7.958;2023-04-29T10:39:14;0.70;;;0.70;;
9280;SDS011;4679;47.966;7.958;2023-04-29T10:41:24;0.63;;;0.63;;
9280;SDS011;4679;47.966;7.958;2023-04-29T10:43:27;1.30;;;0.90;;
9280;SDS011;4679;47.966;7.958;2023-04-29T10:45:31;1.40;;;0.70;;
9280;SDS011;4679;47.966;7.958;2023-04-29T10:47:35;1.10;;;0.80;;
9280;SDS011;4679;47.966;7.958;2023-04-29T10:49:38;2.03;;;0.73;;
9280;SDS011;4679;47.966;7.958;2023-04-29T10:51:40;1.13;;;0.60;;
9280;SDS011;4679;47.966;7.958;2023-04-29T10:53:58;1.67;;;0.83;;
9280;SDS011;4679;47.966;7.958;2023-04-29T10:56:06;0.50;;;0.50;;
9280;SDS011;4679;47.966;7.958;2023-04-29T10:58:32;0.80;;;0.80;;
9280;SDS011;4679;47.966;7.958;2023-04-29T11:02:05;0.67;;;0.67;;
9280;SDS011;4679;47.966;7.958;2023-04-29T11:04:08;0.60;;;0.60;;
9280;SDS011;4679;47.966;7.958;2023-04-29T11:06:10;0.67;;;0.53;;
9280;SDS011;4679;47.966;7.958;2023-04-29T11:08:12;0.70;;;0.70;;
9280;SDS011;4679;47.966;7.958;2023-04-29T11:10:15;0.70;;;0.70;;
9280;SDS011;4679;47.966;7.958;2023-04-29T11:12:19;0.70;;;0.70;;
9280;SDS011;4679;47.966;7.958;2023-04-29T11:14:22;1.70;;;0.67;;
9280;SDS011;4679;47.966;7.958;2023-04-29T11:16:25;1.23;;;0.70;;
9280;SDS011;4679;47.966;7.958;2023-04-29T11:18:29;1.37;;;0.80;;
9280;SDS011;4679;47.966;7.958;2023-04-29T11:20:31;0.80;;;0.80;;
9280;SDS011;4679;47.966;7.958;2023-04-29T11:23:12;1.43;;;0.70;;
9280;SDS011;4679;47.966;7.958;2023-04-29T11:25:17;0.80;;;0.80;;
9280;SDS011;4679;47.966;7.958;2023-04-29T11:27:19;2.13;;;0.90;;
9280;SDS011;4679;47.966;7.958;2023-04-29T11:29:24;0.70;;;0.70;;
9280;SDS011;4679;47.966;7.958;2023-04-29T11:31:29;0.83;;;0.83;;
9280;SDS011;4679;47.966;7.958;2023-04-29T11:33:32;1.20;;;0.70;;
9280;SDS011;4679;47.966;7.958;2023-04-29T11:35:33;1.33;;;0.60;;
9280;SDS011;4679;47.966;7.958;2023-04-29T11:37:40;1.93;;;0.80;;
9280;SDS011;4679;47.966;7.958;2023-04-29T11:39:42;0.60;;;0.60;;
9280;SDS011;4679;47.966;7.958;2023-04-29T11:41:44;0.60;;;0.60;;
9280;SDS011;4679;47.966;7.958;2023-04-29T11:43:46;1.13;;;0.70;;
9280;SDS011;4679;47.966;7.958;2023-04-29T11:45:47;1.10;;;0.70;;
9280;SDS011;4679;47.966;7.958;2023-04-29T11:47:50;1.60;;;0.53;;
9280;SDS011;4679;47.966;7.958;2023-04-29T11:50:00;0.60;;;0.60;;
9280;SDS011;4679;47.966;7.958;2023-04-29T11:52:03;2.40;;;0.70;;
9280;SDS011;4679;47.966;7.958;2023-04-29T11:54:05;0.50;;;0.47;;
9280;SDS011;4679;47.966;7.958;2023-04-29T11:56:07;0.60;;;0.60;;
9280;SDS011;4679;47.966;7.958;2023-04-29T11:58:09;0.70;;;0.70;;
9280;SDS011;4679;47.966;7.958;2023-04-29T12:00:11;0.83;;;0.70;;
9280;SDS011;4679;47.966;7.958;2023-04-29T12:02:14;1.13;;;0.60;;
9280;SDS011;4679;47.966;7.958;2023-04-29T12:04:15;0.60;;;0.60;;
9280;SDS011;4679;47.966;7.958;2023-04-29T12:06:20;0.60;;;0.60;;
9280;SDS011;4679;47.966;7.958;2023-04-29T12:08:22;1.13;;;0.67;;
9280;SDS011;4679;47.966;7.958;2023-04-29T12:10:24;1.53;;;0.53;;
9280;SDS011;4679;47.966;7.958;2023-04-29T12:12:26;0.43;;;0.43;;
9280;SDS011;4679;47.966;7.958;2023-04-29T12:14:30;1.90;;;0.70;;
9280;SDS011;4679;47.966;7.958;2023-04-29T12:16:32;1.90;;;0.70;;
9280;SDS011;4679;47.966;7.958;2023-04-29T12:18:34;2.10;;;0.70;;
9280;SDS011;4679;47.966;7.958;2023-04-29T12:20:36;0.50;;;0.50;;
9280;SDS011;4679;47.966;7.958;2023-04-29T12:22:40;2.30;;;0.67;;
9280;SDS011;4679;47.966;7.958;2023-04-29T12:24:42;0.60;;;0.60;;
9280;SDS011;4679;47.966;7.958;2023-04-29T12:26:44;1.13;;;0.50;;
9280;SDS011;4679;47.966;7.958;2023-04-29T12:28:47;0.77;;;0.60;;
9280;SDS011;4679;47.966;7.958;2023-04-29T12:30:49;0.60;;;0.60;;
9280;SDS011;4679;47.966;7.958;2023-04-29T12:32:53;1.77;;;0.60;;
9280;SDS011;4679;47.966;7.958;2023-04-29T12:34:54;0.70;;;0.70;;
9280;SDS011;4679;47.966;7.958;2023-04-29T12:36:56;2.20;;;0.70;;
9280;SDS011;4679;47.966;7.958;2023-04-29T12:39:01;0.60;;;0.60;;
9280;SDS011;4679;47.966;7.958;2023-04-29T12:41:07;1.10;;;0.50;;
9280;SDS011;4679;47.966;7.958;2023-04-29T12:43:10;0.63;;;0.60;;
9280;SDS011;4679;47.966;7.958;2023-04-29T12:45:24;2.70;;;0.60;;
9280;SDS011;4679;47.966;7.958;2023-04-29T12:47:30;0.80;;;0.60;;
9280;SDS011;4679;47.966;7.958;2023-04-29T12:49:33;0.80;;;0.70;;
9280;SDS011;4679;47.966;7.958;2023-04-29T12:51:35;0.70;;;0.70;;
9280;SDS011;4679;47.966;7.958;2023-04-29T12:53:37;0.70;;;0.63;;
9280;SDS011;4679;47.966;7.958;2023-04-29T12:55:41;1.38;;;0.80;;
9280;SDS011;4679;47.966;7.958;2023-04-29T12:57:43;0.60;;;0.60;;
9280;SDS011;4679;47.966;7.958;2023-04-29T12:59:45;1.85;;;0.70;;
9280;SDS011;4679;47.966;7.958;2023-04-29T13:01:46;1.07;;;0.73;;
9280;SDS011;4679;47.966;7.958;2023-04-29T13:03:48;0.80;;;0.80;;
9280;SDS011;4679;47.966;7.958;2023-04-29T13:05:50;0.77;;;0.70;;
9280;SDS011;4679;47.966;7.958;2023-04-29T13:07:53;0.73;;;0.73;;
9280;SDS011;4679;47.966;7.958;2023-04-29T13:09:56;0.80;;;0.80;;
9280;SDS011;4679;47.966;7.958;2023-04-29T13:11:59;1.03;;;0.80;;
9280;SDS011;4679;47.966;7.958;2023-04-29T13:14:02;0.60;;;0.60;;
9280;SDS011;4679;47.966;7.958;2023-04-29T13:16:04;0.60;;;0.60;;
9280;SDS011;4679;47.966;7.958;2023-04-29T13:18:07;1.27;;;0.77;;
9280;SDS011;4679;47.966;7.958;2023-04-29T13:20:09;1.30;;;0.50;;
9280;SDS011;4679;47.966;7.958;2023-04-29T13:22:11;0.60;;;0.60;;
9280;SDS011;4679;47.966;7.958;2023-04-29T13:24:13;1.17;;;0.50;;
9280;SDS011;4679;47.966;7.958;2023-04-29T13:26:17;0.60;;;0.60;;
9280;SDS011;4679;47.966;7.958;2023-04-29T13:28:20;2.47;;;0.60;;
9280;SDS011;4679;47.966;7.958;2023-04-29T13:30:22;0.50;;;0.50;;
9280;SDS011;4679;47.966;7.958;2023-04-29T13:32:24;0.83;;;0.60;;
9280;SDS011;4679;47.966;7.958;2023-04-29T13:34:26;0.80;;;0.60;;
9280;SDS011;4679;47.966;7.958;2023-04-29T13:36:28;1.13;;;0.57;;
9280;SDS011;4679;47.966;7.958;2023-04-29T13:38:29;0.50;;;0.50;;
9280;SDS011;4679;47.966;7.958;2023-04-29T13:40:31;1.70;;;0.60;;
9280;SDS011;4679;47.966;7.958;2023-04-29T13:42:33;1.55;;;0.40;;
9280;SDS011;4679;47.966;7.958;2023-04-29T13:44:37;0.65;;;0.65;;
9280;SDS011;4679;47.966;7.958;2023-04-29T13:46:43;0.60;;;0.60;;
9280;SDS011;4679;47.966;7.958;2023-04-29T13:48:45;0.80;;;0.80;;
9280;SDS011;4679;47.966;7.958;2023-04-29T13:50:47;0.77;;;0.50;;
9280;SDS011;4679;47.966;7.958;2023-04-29T13:52:48;0.60;;;0.60;;
9280;SDS011;4679;47.966;7.958;2023-04-29T13:54:50;2.43;;;0.60;;
9280;SDS011;4679;47.966;7.958;2023-04-29T13:56:52;0.85;;;0.60;;
9280;SDS011;4679;47.966;7.958;2023-04-29T13:58:53;0.50;;;0.40;;
9280;SDS011;4679;47.966;7.958;2023-04-29T14:00:56;0.63;;;0.60;;
9280;SDS011;4679;47.966;7.958;2023-04-29T14:02:58;0.68;;;0.52;;
9280;SDS011;4679;47.966;7.958;2023-04-29T14:05:00;0.65;;;0.47;;
9280;SDS011;4679;47.966;7.958;2023-04-29T14:07:02;3.33;;;0.60;;
9280;SDS011;4679;47.966;7.958;2023-04-29T14:09:03;0.63;;;0.50;;
9280;SDS011;4679;47.966;7.958;2023-04-29T14:11:05;1.13;;;0.60;;
9280;SDS011;4679;47.966;7.958;2023-04-29T14:13:07;0.50;;;0.50;;
9280;SDS011;4679;47.966;7.958;2023-04-29T14:15:09;4.27;;;0.60;;
9280;SDS011;4679;47.966;7.958;2023-04-29T14:17:12;0.60;;;0.47;;
9280;SDS011;4679;47.966;7.958;2023-04-29T14:19:14;0.60;;;0.60;;
9280;SDS011;4679;47.966;7.958;2023-04-29T14:21:15;0.50;;;0.50;;
9280;SDS011;4679;47.966;7.958;2023-04-29T14:23:17;1.30;;;0.50;;
9280;SDS011;4679;47.966;7.958;2023-04-29T14:25:19;0.60;;;0.60;;
9280;SDS011;4679;47.966;7.958;2023-04-29T14:27:20;0.70;;;0.50;;
9280;SDS011;4679;47.966;7.958;2023-04-29T14:29:22;0.60;;;0.60;;
9280;SDS011;4679;47.966;7.958;2023-04-29T14:31:24;1.37;;;0.90;;
9280;SDS011;4679;47.966;7.958;2023-04-29T14:33:28;3.10;;;0.60;;
9280;SDS011;4679;47.966;7.958;2023-04-29T14:35:30;0.60;;;0.60;;
9280;SDS011;4679;47.966;7.958;2023-04-29T14:37:32;1.00;;;0.60;;
9280;SDS011;4679;47.966;7.958;2023-04-29T14:39:33;0.80;;;0.80;;
9280;SDS011;4679;47.966;7.958;2023-04-29T14:41:36;0.70;;;0.70;;
9280;SDS011;4679;47.966;7.958;2023-04-29T14:43:38;0.80;;;0.80;;
9280;SDS011;4679;47.966;7.958;2023-04-29T14:45:40;1.00;;;0.70;;
9280;SDS011;4679;47.966;7.958;2023-04-29T14:47:43;1.70;;;0.70;;
9280;SDS011;4679;47.966;7.958;2023-04-29T14:49:47;0.80;;;0.80;;
9280;SDS011;4679;47.966;7.958;2023-04-29T14:51:48;3.60;;;0.90;;
9280;SDS011;4679;47.966;7.958;2023-04-29T14:53:50;1.33;;;0.80;;
9280;SDS011;4679;47.966;7.958;2023-04-29T14:55:52;0.63;;;0.63;;
9280;SDS011;4679;47.966;7.958;2023-04-29T14:57:54;1.40;;;0.83;;
9280;SDS011;4679;47.966;7.958;2023-04-29T14:59:56;0.80;;;0.80;;
9280;SDS011;4679;47.966;7.958;2023-04-29T15:01:57;0.70;;;0.70;;
9280;SDS011;4679;47.966;7.958;2023-04-29T15:03:59;1.10;;;0.90;;
9280;SDS011;4679;47.966;7.958;2023-04-29T15:06:03;1.07;;;0.70;;
9280;SDS011;4679;47.966;7.958;2023-04-29T15:08:05;0.87;;;0.87;;
9280;SDS011;4679;47.966;7.958;2023-04-29T15:10:07;3.03;;;0.93;;
9280;SDS011;4679;47.966;7.958;2023-04-29T15:12:10;1.60;;;0.97;;
9280;SDS011;4679;47.966;7.958;2023-04-29T15:14:13;1.27;;;0.70;;
9280;SDS011;4679;47.966;7.958;2023-04-29T15:16:15;0.87;;;0.83;;
9280;SDS011;4679;47.966;7.958;2023-04-29T15:18:16;1.13;;;0.63;;
9280;SDS011;4679;47.966;7.958;2023-04-29T15:20:18;0.97;;;0.80;;
9280;SDS011;4679;47.966;7.958;2023-04-29T15:22:21;1.23;;;0.83;;
9280;SDS011;4679;47.966;7.958;2023-04-29T15:24:23;1.70;;;1.30;;
9280;SDS011;4679;47.966;7.958;2023-04-29T15:26:25;1.00;;;0.90;;
9280;SDS011;4679;47.966;7.958;2023-04-29T15:28:27;0.97;;;0.70;;
9280;SDS011;4679;47.966;7.958;2023-04-29T15:30:29;1.77;;;1.00;;
9280;SDS011;4679;47.966;7.958;2023-04-29T15:32:31;1.63;;;0.97;;
9280;SDS011;4679;47.966;7.958;2023-04-29T15:34:32;1.70;;;1.20;;
9280;SDS011;4679;47.966;7.958;2023-04-29T15:36:35;1.83;;;0.90;;
9280;SDS011;4679;47.966;7.958;2023-04-29T15:38:38;0.90;;;0.80;;
9280;SDS011;4679;47.966;7.958;2023-04-29T15:40:40;1.13;;;1.10;;
9280;SDS011;4679;47.966;7.958;2023-04-29T15:42:42;1.10;;;0.90;;
9280;SDS011;4679;47.966;7.958;2023-04-29T15:44:43;0.90;;;0.90;;
9280;SDS011;4679;47.966;7.958;2023-04-29T15:46:45;0.97;;;0.97;;
9280;SDS011;4679;47.966;7.958;2023-04-29T15:48:47;1.10;;;1.10;;
9280;SDS011;4679;47.966;7.958;2023-04-29T15:50:48;0.83;;;0.83;;
9280;SDS011;4679;47.966;7.958;2023-04-29T15:52:50;1.00;;;0.90;;
9280;SDS011;4679;47.966;7.958;2023-04-29T15:54:56;1.07;;;0.90;;
9280;SDS011;4679;47.966;7.958;2023-04-29T15:56:58;1.07;;;0.90;;
9280;SDS011;4679;47.966;7.958;2023-04-29T15:59:00;1.73;;;1.10;;
9280;SDS011;4679;47.966;7.958;2023-04-29T16:01:02;1.40;;;1.17;;
9280;SDS011;4679;47.966;7.958;2023-04-29T16:03:03;1.53;;;1.00;;
9280;SDS011;4679;47.966;7.958;2023-04-29T16:05:05;1.00;;;1.00;;
9280;SDS011;4679;47.966;7.958;2023-04-29T16:07:07;1.60;;;1.00;;
9280;SDS011;4679;47.966;7.958;2023-04-29T16:09:09;1.00;;;1.00;;
9280;SDS011;4679;47.966;7.958;2023-04-29T16:11:12;1.20;;;1.10;;
9280;SDS011;4679;47.966;7.958;2023-04-29T16:13:14;1.30;;;1.20;;
9280;SDS011;4679;47.966;7.958;2023-04-29T16:15:16;1.30;;;1.20;;
9280;SDS011;4679;47.966;7.958;2023-04-29T16:17:17;1.57;;;1.47;;
9280;SDS011;4679;47.966;7.958;2023-04-29T16:19:19;1.60;;;1.40;;
9280;SDS011;4679;47.966;7.958;2023-04-29T16:21:21;1.50;;;1.40;;
9280;SDS011;4679;47.966;7.958;2023-04-29T16:23:23;1.30;;;1.20;;
9280;SDS011;4679;47.966;7.958;2023-04-29T16:25:25;1.60;;;1.50;;
9280;SDS011;4679;47.966;7.958;2023-04-29T16:27:28;1.50;;;1.40;;
9280;SDS011;4679;47.966;7.958;2023-04-29T16:29:29;1.60;;;1.50;;
9280;SDS011;4679;47.966;7.958;2023-04-29T16:31:31;2.57;;;1.50;;
9280;SDS011;4679;47.966;7.958;2023-04-29T16:33:33;1.60;;;1.50;;
9280;SDS011;4679;47.966;7.958;2023-04-29T16:35:34;1.90;;;1.30;;
9280;SDS011;4679;47.966;7.958;2023-04-29T16:37:36;1.20;;;1.10;;
9280;SDS011;4679;47.966;7.958;2023-04-29T16:39:38;1.90;;;1.40;;
9280;SDS011;4679;47.966;7.958;2023-04-29T16:41:40;1.20;;;1.10;;
9280;SDS011;4679;47.966;7.958;2023-04-29T16:43:43;1.97;;;1.20;;
9280;SDS011;4679;47.966;7.958;2023-04-29T16:45:45;1.20;;;1.10;;
9280;SDS011;4679;47.966;7.958;2023-04-29T16:47:47;1.60;;;1.10;;
9280;SDS011;4679;47.966;7.958;2023-04-29T16:49:48;1.07;;;1.07;;
9280;SDS011;4679;47.966;7.958;2023-04-29T16:51:50;2.57;;;1.17;;
9280;SDS011;4679;47.966;7.958;2023-04-29T16:53:52;1.50;;;1.40;;
9280;SDS011;4679;47.966;7.958;2023-04-29T16:55:53;1.37;;;1.27;;
9280;SDS011;4679;47.966;7.958;2023-04-29T16:57:55;4.63;;;1.10;;
9280;SDS011;4679;47.966;7.958;2023-04-29T16:59:58;2.87;;;1.30;;
9280;SDS011;4679;47.966;7.958;2023-04-29T17:02:00;1.70;;;1.00;;
9280;SDS011;4679;47.966;7.958;2023-04-29T17:04:02;1.33;;;1.23;;
9280;SDS011;4679;47.966;7.958;2023-04-29T17:06:04;1.90;;;1.37;;
9280;SDS011;4679;47.966;7.958;2023-04-29T17:08:06;1.13;;;1.13;;
9280;SDS011;4679;47.966;7.958;2023-04-29T17:10:09;1.73;;;1.20;;
9280;SDS011;4679;47.966;7.958;2023-04-29T17:12:11;2.17;;;1.40;;
9280;SDS011;4679;47.966;7.958;2023-04-29T17:14:13;1.57;;;1.40;;
9280;SDS011;4679;47.966;7.958;2023-04-29T17:16:16;1.80;;;1.70;;
9280;SDS011;4679;47.966;7.958;2023-04-29T17:18:17;1.70;;;1.60;;
9280;SDS011;4679;47.966;7.958;2023-04-29T17:20:19;1.57;;;1.47;;
9280;SDS011;4679;47.966;7.958;2023-04-29T17:22:22;1.50;;;1.30;;
9280;SDS011;4679;47.966;7.958;2023-04-29T17:24:23;2.37;;;1.37;;
9280;SDS011;4679;47.966;7.958;2023-04-29T17:26:25;1.30;;;1.20;;
9280;SDS011;4679;47.966;7.958;2023-04-29T17:28:27;1.30;;;1.20;;
9280;SDS011;4679;47.966;7.958;2023-04-29T17:30:29;1.30;;;1.20;;
9280;SDS011;4679;47.966;7.958;2023-04-29T17:32:32;1.87;;;1.23;;
9280;SDS011;4679;47.966;7.958;2023-04-29T17:34:38;1.50;;;1.40;;
9280;SDS011;4679;47.966;7.958;2023-04-29T17:36:39;1.50;;;1.40;;
9280;SDS011;4679;47.966;7.958;2023-04-29T17:38:41;1.73;;;1.43;;
9280;SDS011;4679;47.966;7.958;2023-04-29T17:40:43;1.63;;;1.53;;
9280;SDS011;4679;47.966;7.958;2023-04-29T17:42:44;1.60;;;1.50;;
9280;SDS011;4679;47.966;7.958;2023-04-29T17:44:46;1.60;;;1.50;;
9280;SDS011;4679;47.966;7.958;2023-04-29T17:46:48;1.50;;;1.40;;
9280;SDS011;4679;47.966;7.958;2023-04-29T17:48:51;1.67;;;1.40;;
9280;SDS011;4679;47.966;7.958;2023-04-29T17:50:53;2.00;;;1.90;;
9280;SDS011;4679;47.966;7.958;2023-04-29T17:52:55;1.97;;;1.70;;
9280;SDS011;4679;47.966;7.958;2023-04-29T17:54:56;2.17;;;1.50;;
9280;SDS011;4679;47.966;7.958;2023-04-29T17:56:58;1.97;;;1.50;;
9280;SDS011;4679;47.966;7.958;2023-04-29T17:59:02;1.60;;;1.50;;
9280;SDS011;4679;47.966;7.958;2023-04-29T18:01:05;1.50;;;1.40;;
9280;SDS011;4679;47.966;7.958;2023-04-29T18:03:07;2.00;;;1.47;;
9280;SDS011;4679;47.966;7.958;2023-04-29T18:05:10;2.30;;;1.43;;
9280;SDS011;4679;47.966;7.958;2023-04-29T18:07:12;1.53;;;1.43;;
9280;SDS011;4679;47.966;7.958;2023-04-29T18:09:14;3.13;;;1.43;;
9280;SDS011;4679;47.966;7.958;2023-04-29T18:11:17;1.93;;;1.47;;
9280;SDS011;4679;47.966;7.958;2023-04-29T18:13:18;2.13;;;1.90;;
9280;SDS011;4679;47.966;7.958;2023-04-29T18:15:20;1.87;;;1.47;;
9280;SDS011;4679;47.966;7.958;2023-04-29T18:17:22;2.10;;;1.87;;
9280;SDS011;4679;47.966;7.958;2023-04-29T18:19:23;2.00;;;1.77;;
9280;SDS011;4679;47.966;7.958;2023-04-29T18:21:27;2.10;;;1.80;;
9280;SDS011;4679;47.966;7.958;2023-04-29T18:23:28;2.00;;;1.63;;
9280;SDS011;4679;47.966;7.958;2023-04-29T18:25:30;2.73;;;1.53;;
9280;SDS011;4679;47.966;7.958;2023-04-29T18:27:36;1.87;;;1.63;;
9280;SDS011;4679;47.966;7.958;2023-04-29T18:29:38;1.60;;;1.50;;
9280;SDS011;4679;47.966;7.958;2023-04-29T18:31:39;2.13;;;1.50;;
9280;SDS011;4679;47.966;7.958;2023-04-29T18:33:42;1.80;;;1.70;;
9280;SDS011;4679;47.966;7.958;2023-04-29T18:35:44;3.23;;;2.00;;
9280;SDS011;4679;47.966;7.958;2023-04-29T18:37:47;1.90;;;1.80;;
9280;SDS011;4679;47.966;7.958;2023-04-29T18:39:50;2.13;;;2.00;;
9280;SDS011;4679;47.966;7.958;2023-04-29T18:41:51;2.30;;;2.00;;
9280;SDS011;4679;47.966;7.958;2023-04-29T18:43:53;2.43;;;1.77;;
9280;SDS011;4679;47.966;7.958;2023-04-29T18:45:55;2.53;;;2.33;;
9280;SDS011;4679;47.966;7.958;2023-04-29T18:47:57;1.77;;;1.67;;
9280;SDS011;4679;47.966;7.958;2023-04-29T18:50:04;2.67;;;2.10;;
9280;SDS011;4679;47.966;7.958;2023-04-29T18:52:07;2.50;;;2.30;;
9280;SDS011;4679;47.966;7.958;2023-04-29T18:54:10;1.87;;;1.77;;
9280;SDS011;4679;47.966;7.958;2023-04-29T18:56:13;2.50;;;2.30;;
9280;SDS011;4679;47.966;7.958;2023-04-29T18:58:15;2.57;;;2.37;;
9280;SDS011;4679;47.966;7.958;2023-04-29T19:00:16;2.40;;;2.20;;
9280;SDS011;4679;47.966;7.958;2023-04-29T19:02:18;2.30;;;2.10;;
9280;SDS011;4679;47.966;7.958;2023-04-29T19:04:20;2.80;;;2.30;;
9280;SDS011;4679;47.966;7.958;2023-04-29T19:06:22;3.30;;;2.30;;
9280;SDS011;4679;47.966;7.958;2023-04-29T19:08:24;2.30;;;2.10;;
9280;SDS011;4679;47.966;7.958;2023-04-29T19:10:27;3.90;;;2.00;;
9280;SDS011;4679;47.966;7.958;2023-04-29T19:12:29;1.90;;;1.80;;
9280;SDS011;4679;47.966;7.958;2023-04-29T19:14:31;2.43;;;2.23;;
9280;SDS011;4679;47.966;7.958;2023-04-29T19:16:33;2.43;;;2.20;;
9280;SDS011;4679;47.966;7.958;2023-04-29T19:18:35;2.90;;;2.00;;
9280;SDS011;4679;47.966;7.958;2023-04-29T19:20:36;2.67;;;2.00;;
9280;SDS011;4679;47.966;7.958;2023-04-29T19:22:38;3.17;;;2.23;;
9280;SDS011;4679;47.966;7.958;2023-04-29T19:24:40;2.50;;;2.00;;
9280;SDS011;4679;47.966;7.958;2023-04-29T19:26:43;2.47;;;2.10;;